createdAt,value
2023-01-31T00:00:48.800Z,101163.78
2023-01-31T00:03:16.710Z,101164.28
2023-01-31T00:05:44.876Z,101166.69
2023-01-31T00:08:14.196Z,101171.88
2023-01-31T00:10:44.680Z,101177.16
2023-01-31T00:13:12.279Z,101182.75
2023-01-31T00:15:39.908Z,101176.69
2023-01-31T00:18:07.379Z,101176.06
2023-01-31T00:20:35.992Z,101187.38
2023-01-31T00:23:03.513Z,101190.19
2023-01-31T00:25:31.040Z,101177.44
2023-01-31T00:27:58.824Z,101183.13
2023-01-31T00:30:26.361Z,101189.69
2023-01-31T00:32:53.820Z,101193.41
2023-01-31T00:35:21.956Z,101187.31
2023-01-31T00:37:49.680Z,101182.06
2023-01-31T00:40:17.374Z,101193.34
2023-01-31T00:42:46.580Z,101193.94
2023-01-31T00:45:14.264Z,101199.53
2023-01-31T00:47:41.833Z,101212.47
2023-01-31T00:50:14.118Z,101215.63
2023-01-31T00:52:41.932Z,101191.13
2023-01-31T00:55:09.710Z,101204.75
2023-01-31T00:57:37.308Z,101218.38
2023-01-31T01:00:05.603Z,101215.00
2023-01-31T01:02:33.525Z,101205.72
2023-01-31T01:05:01.079Z,101218.38
2023-01-31T01:07:28.801Z,101205.25
2023-01-31T01:09:56.443Z,101209.34
2023-01-31T01:12:23.913Z,101214.28
2023-01-31T01:14:51.341Z,101216.66
2023-01-31T01:17:18.805Z,101228.47
2023-01-31T01:19:46.302Z,101230.06
2023-01-31T01:22:16.385Z,101228.69
2023-01-31T01:24:45.055Z,101234.00
2023-01-31T01:27:13.559Z,101231.44
2023-01-31T01:29:41.613Z,101234.06
2023-01-31T01:32:09.172Z,101246.88
2023-01-31T01:34:37.253Z,101242.06
2023-01-31T01:37:11.671Z,101260.63
2023-01-31T01:39:39.334Z,101237.56
2023-01-31T01:42:08.342Z,101247.16
2023-01-31T01:44:59.399Z,101236.78
2023-01-31T01:47:35.384Z,101246.84
2023-01-31T01:50:11.923Z,101251.41
2023-01-31T01:52:52.033Z,101247.72
2023-01-31T01:55:31.848Z,101243.81
2023-01-31T01:58:14.285Z,101227.38
2023-01-31T02:00:44.491Z,101237.28
2023-01-31T02:03:12.565Z,101242.53
2023-01-31T02:05:52.072Z,101238.28
2023-01-31T02:08:23.925Z,101246.47
2023-01-31T02:10:59.035Z,101246.56
2023-01-31T02:13:27.609Z,101261.91
2023-01-31T02:15:55.670Z,101262.34
2023-01-31T02:18:28.266Z,101269.34
2023-01-31T02:20:58.761Z,101269.38
2023-01-31T02:23:45.686Z,101266.88
2023-01-31T02:26:29.431Z,101261.50
2023-01-31T02:29:00.902Z,101267.50
2023-01-31T02:31:53.118Z,101258.50
2023-01-31T02:34:38.427Z,101258.91
2023-01-31T02:37:08.502Z,101260.81
2023-01-31T02:40:02.963Z,101255.34
2023-01-31T02:43:01.601Z,101264.06
2023-01-31T02:45:57.810Z,101249.31
2023-01-31T02:48:40.057Z,101254.56
2023-01-31T02:51:12.804Z,101254.31
2023-01-31T02:53:51.126Z,101266.91
2023-01-31T02:56:26.116Z,101275.84
2023-01-31T02:59:12.298Z,101281.00
2023-01-31T03:01:47.644Z,101285.28
2023-01-31T03:04:15.614Z,101276.75
2023-01-31T03:07:07.427Z,101285.84
2023-01-31T03:09:57.593Z,101302.97
2023-01-31T03:12:40.350Z,101297.81
2023-01-31T03:15:10.314Z,101295.84
2023-01-31T03:17:59.712Z,101298.13
2023-01-31T03:20:50.392Z,101279.34
2023-01-31T03:23:24.967Z,101299.28
2023-01-31T03:25:55.935Z,101304.03
2023-01-31T03:28:29.415Z,101299.81
2023-01-31T03:31:05.459Z,101303.47
2023-01-31T03:33:38.291Z,101305.41
2023-01-31T03:36:25.328Z,101305.41
2023-01-31T03:39:13.457Z,101310.00
2023-01-31T03:41:46.057Z,101298.47
2023-01-31T03:44:29.457Z,101298.88
2023-01-31T03:47:07.692Z,101295.53
2023-01-31T03:49:37.996Z,101292.31
2023-01-31T03:52:09.043Z,101295.84
2023-01-31T03:54:43.174Z,101315.50
2023-01-31T03:57:25.528Z,101306.19
2023-01-31T03:59:59.478Z,101302.00
2023-01-31T04:02:37.054Z,101302.91
2023-01-31T04:05:04.750Z,101304.91
2023-01-31T04:07:33.121Z,101296.28
2023-01-31T04:10:07.644Z,101298.75
2023-01-31T04:12:37.484Z,101288.19
2023-01-31T04:15:06.102Z,101294.53
2023-01-31T04:17:33.599Z,101293.44
2023-01-31T04:20:01.484Z,101300.50
2023-01-31T04:22:29.025Z,101300.72
2023-01-31T04:24:56.559Z,101295.19
2023-01-31T04:27:24.175Z,101294.25
2023-01-31T04:29:51.662Z,101295.91
2023-01-31T04:32:19.142Z,101301.72
2023-01-31T04:34:49.533Z,101301.78
2023-01-31T04:37:20.804Z,101313.34
2023-01-31T04:39:50.862Z,101305.66
2023-01-31T04:42:20.820Z,101310.19
2023-01-31T04:44:48.334Z,101308.75
2023-01-31T04:47:15.902Z,101303.66
2023-01-31T04:49:44.406Z,101316.16
2023-01-31T04:52:12.244Z,101313.78
2023-01-31T04:54:39.761Z,101320.69
2023-01-31T04:57:09.658Z,101311.88
2023-01-31T04:59:46.360Z,101320.81
2023-01-31T05:02:15.343Z,101314.47
2023-01-31T05:04:44.368Z,101310.34
2023-01-31T05:07:11.960Z,101305.78
2023-01-31T05:09:44.245Z,101315.75
2023-01-31T05:12:14.851Z,101323.56
2023-01-31T05:14:42.485Z,101319.28
2023-01-31T05:17:09.966Z,101317.59
2023-01-31T05:19:37.795Z,101313.44
2023-01-31T05:22:06.346Z,101314.75
2023-01-31T05:24:34.404Z,101324.78
2023-01-31T05:27:05.504Z,101332.50
2023-01-31T05:29:33.667Z,101317.84
2023-01-31T05:32:03.340Z,101323.38
2023-01-31T05:34:33.373Z,101311.25
2023-01-31T05:37:02.592Z,101314.59
2023-01-31T05:39:31.356Z,101306.06
2023-01-31T05:42:02.223Z,101310.31
2023-01-31T05:44:32.966Z,101310.59
2023-01-31T05:47:01.382Z,101324.41
2023-01-31T05:49:33.600Z,101321.91
2023-01-31T05:52:01.307Z,101333.38
2023-01-31T05:54:29.377Z,101329.66
2023-01-31T05:56:56.878Z,101336.38
2023-01-31T05:59:33.821Z,101336.06
2023-01-31T06:02:01.424Z,101345.59
2023-01-31T06:04:29.012Z,101346.94
2023-01-31T06:06:56.590Z,101342.94
2023-01-31T06:09:24.023Z,101354.56
2023-01-31T06:11:51.595Z,101362.72
2023-01-31T06:14:19.394Z,101374.91
2023-01-31T06:16:47.063Z,101382.16
2023-01-31T06:19:14.552Z,101373.63
2023-01-31T06:21:42.052Z,101383.72
2023-01-31T06:24:09.750Z,101380.41
2023-01-31T06:26:37.297Z,101390.56
2023-01-31T06:29:05.590Z,101382.75
2023-01-31T06:31:33.290Z,101389.69
2023-01-31T06:34:00.904Z,101395.75
2023-01-31T06:36:28.403Z,101404.72
2023-01-31T06:38:55.901Z,101405.22
2023-01-31T06:41:23.408Z,101412.75
2023-01-31T06:43:51.416Z,101418.34
2023-01-31T06:46:18.982Z,101429.28
2023-01-31T06:48:48.540Z,101420.59
2023-01-31T06:51:16.987Z,101423.56
2023-01-31T06:53:44.542Z,101421.66
2023-01-31T06:56:12.056Z,101430.41
2023-01-31T06:58:40.104Z,101434.34
2023-01-31T07:01:09.443Z,101444.66
2023-01-31T07:03:37.306Z,101434.03
2023-01-31T07:06:06.022Z,101429.13
2023-01-31T07:08:35.790Z,101432.97
2023-01-31T07:11:04.985Z,101443.03
2023-01-31T07:13:32.936Z,101438.63
2023-01-31T07:16:00.699Z,101441.25
2023-01-31T07:18:28.417Z,101458.66
2023-01-31T07:20:56.228Z,101444.78
2023-01-31T07:23:23.896Z,101453.50
2023-01-31T07:25:51.876Z,101457.50
2023-01-31T07:28:19.419Z,101445.31
2023-01-31T07:30:48.502Z,101440.94
2023-01-31T07:33:15.953Z,101454.44
2023-01-31T07:35:43.714Z,101445.94
2023-01-31T07:38:11.557Z,101452.06
2023-01-31T07:40:40.260Z,101461.63
2023-01-31T07:43:07.778Z,101451.56
2023-01-31T07:45:35.766Z,101452.47
2023-01-31T07:48:03.875Z,101456.34
2023-01-31T07:50:33.293Z,101457.47
2023-01-31T07:53:01.054Z,101449.72
2023-01-31T07:55:28.547Z,101444.03
2023-01-31T07:57:56.127Z,101450.44
2023-01-31T08:00:42.639Z,101453.38
2023-01-31T08:03:33.693Z,101443.09
2023-01-31T08:06:07.581Z,101464.47
2023-01-31T08:08:37.554Z,101462.38
2023-01-31T08:11:05.435Z,101457.38
2023-01-31T08:13:36.681Z,101465.09
2023-01-31T08:16:06.144Z,101474.03
2023-01-31T08:18:34.059Z,101477.03
2023-01-31T08:21:04.344Z,101472.19
2023-01-31T08:23:32.161Z,101470.72
2023-01-31T08:26:04.646Z,101480.84
2023-01-31T08:28:32.820Z,101481.34
2023-01-31T08:31:08.742Z,101484.63
2023-01-31T08:33:38.482Z,101484.78
2023-01-31T08:36:18.989Z,101487.16
2023-01-31T08:38:47.386Z,101503.06
2023-01-31T08:41:15.537Z,101487.97
2023-01-31T08:43:55.105Z,101504.06
2023-01-31T08:46:30.985Z,101503.50
2023-01-31T08:49:00.613Z,101495.28
2023-01-31T08:51:28.990Z,101493.03
2023-01-31T08:53:56.693Z,101492.13
2023-01-31T08:56:26.348Z,101505.13
2023-01-31T08:58:54.595Z,101510.50
2023-01-31T09:01:22.912Z,101506.38
2023-01-31T09:03:56.265Z,101512.13
2023-01-31T09:06:27.059Z,101522.69
2023-01-31T09:08:58.321Z,101516.63
2023-01-31T09:11:30.707Z,101520.16
2023-01-31T09:13:58.796Z,101515.63
2023-01-31T09:16:26.422Z,101520.13
2023-01-31T09:18:54.454Z,101515.72
2023-01-31T09:21:22.182Z,101521.81
2023-01-31T09:23:55.221Z,101515.50
2023-01-31T09:26:22.809Z,101517.50
2023-01-31T09:28:51.229Z,101518.09
2023-01-31T09:31:23.412Z,101522.75
2023-01-31T09:33:51.271Z,101509.47
2023-01-31T09:36:21.077Z,101518.28
2023-01-31T09:38:48.741Z,101522.78
2023-01-31T09:41:25.168Z,101509.53
2023-01-31T09:43:58.935Z,101521.91
2023-01-31T09:46:36.815Z,101517.50
2023-01-31T09:49:13.477Z,101508.53
2023-01-31T09:51:41.167Z,101512.16
2023-01-31T09:54:19.511Z,101524.50
2023-01-31T09:57:05.095Z,101527.16
2023-01-31T09:59:39.480Z,101520.03
2023-01-31T10:02:28.515Z,101523.56
2023-01-31T10:05:05.603Z,101519.19
2023-01-31T10:07:40.268Z,101516.59
2023-01-31T10:10:36.069Z,101526.19
2023-01-31T10:13:11.827Z,101527.09
2023-01-31T10:15:48.214Z,101535.03
2023-01-31T10:18:31.526Z,101540.25
2023-01-31T10:21:10.949Z,101537.66
2023-01-31T10:23:50.927Z,101534.72
2023-01-31T10:26:24.292Z,101525.94
2023-01-31T10:29:00.845Z,101520.03
2023-01-31T10:31:43.874Z,101526.22
2023-01-31T10:34:23.869Z,101520.91
2023-01-31T10:37:03.051Z,101526.97
2023-01-31T10:39:39.336Z,101511.84
2023-01-31T10:42:22.183Z,101502.59
2023-01-31T10:44:55.691Z,101496.69
2023-01-31T10:47:33.270Z,101502.09
2023-01-31T10:50:42.579Z,101506.31
2023-01-31T10:53:48.806Z,101500.75
2023-01-31T10:56:25.122Z,101497.50
2023-01-31T10:59:19.808Z,101494.72
2023-01-31T11:02:43.342Z,101484.09
2023-01-31T11:05:18.803Z,101490.53
2023-01-31T11:07:46.669Z,101486.91
2023-01-31T11:10:25.930Z,101474.63
2023-01-31T11:12:57.439Z,101479.69
2023-01-31T11:15:48.448Z,101483.25
2023-01-31T11:18:35.157Z,101479.75
2023-01-31T11:21:04.315Z,101468.19
2023-01-31T11:23:35.560Z,101476.06
2023-01-31T11:26:03.746Z,101469.94
2023-01-31T11:28:38.057Z,101475.19
2023-01-31T11:31:15.773Z,101465.53
2023-01-31T11:33:56.417Z,101454.00
2023-01-31T11:36:24.493Z,101462.19
2023-01-31T11:38:52.725Z,101461.31
2023-01-31T11:41:41.456Z,101461.09
2023-01-31T11:44:15.870Z,101465.47
2023-01-31T11:47:01.356Z,101454.13
2023-01-31T11:49:31.141Z,101460.34
2023-01-31T11:52:02.818Z,101456.06
2023-01-31T11:54:54.886Z,101461.19
2023-01-31T11:57:40.653Z,101447.00
2023-01-31T12:00:24.954Z,101435.78
2023-01-31T12:03:22.136Z,101438.44
2023-01-31T12:05:58.982Z,101446.28
2023-01-31T12:08:38.706Z,101435.59
2023-01-31T12:11:07.309Z,101442.56
2023-01-31T12:14:02.440Z,101444.34
2023-01-31T12:16:31.280Z,101444.41
2023-01-31T12:19:08.947Z,101448.00
2023-01-31T12:21:36.465Z,101448.09
2023-01-31T12:24:30.509Z,101434.72
2023-01-31T12:27:42.452Z,101434.03
2023-01-31T12:30:35.934Z,101429.53
2023-01-31T12:33:18.740Z,101426.13
2023-01-31T12:36:04.867Z,101413.88
2023-01-31T12:38:32.289Z,101416.63
2023-01-31T12:41:02.522Z,101411.31
2023-01-31T12:43:58.898Z,101403.53
2023-01-31T12:46:34.629Z,101400.97
2023-01-31T12:49:25.129Z,101403.72
2023-01-31T12:52:02.944Z,101372.16
2023-01-31T12:58:30.557Z,101380.97
2023-01-31T13:01:07.434Z,101376.56
2023-01-31T13:04:11.063Z,101371.34
2023-01-31T13:06:44.041Z,101381.97
2023-01-31T13:09:18.820Z,101373.13
2023-01-31T13:11:59.107Z,101368.78
2023-01-31T13:14:41.155Z,101371.38
2023-01-31T13:17:13.949Z,101357.28
2023-01-31T13:19:51.336Z,101359.88
2023-01-31T13:22:23.646Z,101350.31
2023-01-31T13:25:24.460Z,101355.53
2023-01-31T13:28:36.663Z,101352.91
2023-01-31T13:31:10.661Z,101343.19
2023-01-31T13:33:46.650Z,101336.16
2023-01-31T13:36:30.711Z,101351.13
2023-01-31T13:39:07.814Z,101344.16
2023-01-31T13:41:37.545Z,101344.13
2023-01-31T13:44:24.263Z,101344.13
2023-01-31T13:47:08.843Z,101348.50
2023-01-31T13:50:17.599Z,101333.53
2023-01-31T13:52:53.192Z,101327.41
2023-01-31T13:55:30.073Z,101319.53
2023-01-31T13:58:05.221Z,101328.28
2023-01-31T14:00:44.969Z,101331.00
2023-01-31T14:03:19.463Z,101319.56
2023-01-31T14:05:57.647Z,101322.19
2023-01-31T14:08:37.363Z,101328.38
2023-01-31T14:11:13.909Z,101339.78
2023-01-31T14:13:45.050Z,101329.34
2023-01-31T14:16:37.622Z,101334.63
2023-01-31T14:19:25.220Z,101330.25
2023-01-31T14:22:26.068Z,101326.66
2023-01-31T14:24:53.671Z,101323.22
2023-01-31T14:27:40.127Z,101339.72
2023-01-31T14:30:10.460Z,101331.81
2023-01-31T14:33:12.164Z,101323.06
2023-01-31T14:36:01.726Z,101332.66
2023-01-31T14:38:49.940Z,101317.69
2023-01-31T14:42:01.756Z,101316.84
2023-01-31T14:44:41.303Z,101310.72
2023-01-31T14:47:26.504Z,101303.69
2023-01-31T14:50:04.873Z,101301.94
2023-01-31T14:52:35.119Z,101302.81
2023-01-31T14:55:27.423Z,101309.84
2023-01-31T14:58:01.653Z,101301.00
2023-01-31T15:00:32.964Z,101308.91
2023-01-31T15:03:07.758Z,101300.06
2023-01-31T15:05:35.260Z,101315.00
2023-01-31T15:08:11.576Z,101313.03
2023-01-31T15:11:02.782Z,101308.63
2023-01-31T15:13:42.575Z,101319.13
2023-01-31T15:16:31.198Z,101318.19
2023-01-31T15:19:19.443Z,101324.25
2023-01-31T15:21:52.522Z,101309.19
2023-01-31T15:24:32.163Z,101310.09
2023-01-31T15:27:01.680Z,101308.16
2023-01-31T15:29:47.054Z,101306.28
2023-01-31T15:32:22.582Z,101310.59
2023-01-31T15:34:57.244Z,101306.16
2023-01-31T15:37:31.951Z,101304.34
2023-01-31T15:40:33.712Z,101309.50
2023-01-31T15:43:24.924Z,101318.00
2023-01-31T15:45:52.796Z,101302.03
2023-01-31T15:48:21.888Z,101309.75
2023-01-31T15:50:58.441Z,101313.91
2023-01-31T15:53:29.597Z,101315.44
2023-01-31T15:56:02.811Z,101316.25
2023-01-31T15:58:31.799Z,101317.94
2023-01-31T16:01:01.725Z,101316.00
2023-01-31T16:03:33.776Z,101316.66
2023-01-31T16:06:01.498Z,101315.50
2023-01-31T16:08:36.966Z,101316.22
2023-01-31T16:11:06.290Z,101324.94
2023-01-31T16:13:43.180Z,101312.59
2023-01-31T16:16:14.457Z,101306.25
2023-01-31T16:18:55.934Z,101311.19
2023-01-31T16:21:31.333Z,101325.59
2023-01-31T16:24:19.389Z,101317.47
2023-01-31T16:27:15.553Z,101328.63
2023-01-31T16:29:46.076Z,101323.19
2023-01-31T16:32:16.563Z,101324.88
2023-01-31T16:34:44.225Z,101328.94
2023-01-31T16:37:12.831Z,101329.69
2023-01-31T16:39:49.481Z,101343.50
2023-01-31T16:42:22.336Z,101340.88
2023-01-31T16:44:50.543Z,101328.44
2023-01-31T16:47:47.986Z,101346.31
2023-01-31T16:50:15.434Z,101363.63
2023-01-31T16:52:44.598Z,101362.25
2023-01-31T16:55:18.865Z,101371.53
2023-01-31T16:57:47.301Z,101367.09
2023-01-31T17:00:23.681Z,101354.88
2023-01-31T17:02:59.137Z,101350.50
2023-01-31T17:05:29.693Z,101350.38
2023-01-31T17:07:59.648Z,101355.31
2023-01-31T17:10:31.087Z,101348.88
2023-01-31T17:13:05.307Z,101345.84
2023-01-31T17:15:32.839Z,101340.69
2023-01-31T17:18:00.280Z,101333.16
2023-01-31T17:20:27.941Z,101336.53
2023-01-31T17:23:03.143Z,101346.00
2023-01-31T17:25:36.648Z,101338.94
2023-01-31T17:28:05.736Z,101333.63
2023-01-31T17:30:35.071Z,101339.31
2023-01-31T17:33:02.654Z,101329.19
2023-01-31T17:35:37.289Z,101329.34
2023-01-31T17:38:05.831Z,101332.22
2023-01-31T17:40:33.695Z,101322.47
2023-01-31T17:43:04.019Z,101322.41
2023-01-31T17:45:32.666Z,101322.25
2023-01-31T17:48:00.193Z,101328.22
2023-01-31T17:50:29.577Z,101335.91
2023-01-31T17:52:57.225Z,101326.09
2023-01-31T17:55:25.358Z,101334.63
2023-01-31T17:57:54.317Z,101330.28
2023-01-31T18:00:21.912Z,101321.50
2023-01-31T18:02:49.618Z,101320.47
2023-01-31T18:05:27.103Z,101320.63
2023-01-31T18:07:59.163Z,101337.13
2023-01-31T18:10:27.094Z,101332.88
2023-01-31T18:12:55.577Z,101330.28
2023-01-31T18:15:23.707Z,101321.28
2023-01-31T18:17:51.211Z,101314.97
2023-01-31T18:20:19.350Z,101322.91
2023-01-31T18:22:47.143Z,101328.50
2023-01-31T18:25:14.685Z,101313.47
2023-01-31T18:27:42.526Z,101321.34
2023-01-31T18:30:10.740Z,101321.53
2023-01-31T18:32:38.335Z,101334.53
2023-01-31T18:35:06.299Z,101321.38
2023-01-31T18:37:33.951Z,101338.09
2023-01-31T18:40:03.356Z,101325.84
2023-01-31T18:42:30.860Z,101323.97
2023-01-31T18:44:58.407Z,101309.34
2023-01-31T18:47:25.878Z,101310.75
2023-01-31T18:49:53.573Z,101306.06
2023-01-31T18:52:21.295Z,101304.16
2023-01-31T18:54:50.419Z,101295.72
2023-01-31T18:57:17.859Z,101292.34
2023-01-31T18:59:45.444Z,101304.56
2023-01-31T19:02:13.064Z,101294.66
2023-01-31T19:04:40.664Z,101305.66
2023-01-31T19:07:08.315Z,101321.63
2023-01-31T19:09:35.925Z,101313.59
2023-01-31T19:12:03.707Z,101305.53
2023-01-31T19:14:31.200Z,101304.31
2023-01-31T19:16:59.588Z,101309.84
2023-01-31T19:19:27.072Z,101312.50
2023-01-31T19:21:54.980Z,101311.56
2023-01-31T19:24:22.637Z,101313.94
2023-01-31T19:26:50.200Z,101317.38
2023-01-31T19:29:17.899Z,101312.63
2023-01-31T19:31:45.434Z,101319.41
2023-01-31T19:34:13.100Z,101304.00
2023-01-31T19:36:41.755Z,101312.28
2023-01-31T19:39:12.132Z,101308.09
2023-01-31T19:41:40.997Z,101317.00
2023-01-31T19:44:08.748Z,101326.28
2023-01-31T19:46:37.210Z,101319.97
2023-01-31T19:49:04.696Z,101318.69
2023-01-31T19:51:32.286Z,101314.78
2023-01-31T19:54:02.893Z,101315.41
2023-01-31T19:56:31.472Z,101316.94
2023-01-31T19:58:59.986Z,101317.94
2023-01-31T20:01:27.602Z,101309.38
2023-01-31T20:03:55.456Z,101304.31
2023-01-31T20:06:27.659Z,101303.84
2023-01-31T20:09:23.147Z,101314.22
2023-01-31T20:12:16.823Z,101311.66
2023-01-31T20:23:25.114Z,101347.69
2023-01-31T20:48:08.105Z,101346.34
2023-01-31T20:50:35.771Z,101351.81
2023-01-31T20:53:03.870Z,101355.53
2023-01-31T20:55:31.328Z,101370.78
2023-01-31T20:57:58.871Z,101376.16
2023-01-31T21:00:26.373Z,101359.84
2023-01-31T21:02:54.048Z,101359.88
2023-01-31T21:05:23.848Z,101353.31
2023-01-31T21:07:51.607Z,101358.19
2023-01-31T21:10:19.528Z,101357.88
2023-01-31T21:12:47.289Z,101367.06
2023-01-31T21:15:14.991Z,101374.06
2023-01-31T21:17:42.604Z,101369.50
2023-01-31T21:20:11.280Z,101372.47
2023-01-31T21:22:38.784Z,101365.13
2023-01-31T21:25:06.600Z,101372.63
2023-01-31T21:27:34.192Z,101363.25
2023-01-31T21:30:01.727Z,101370.22
2023-01-31T21:32:29.609Z,101373.38
2023-01-31T21:34:57.274Z,101364.69
2023-01-31T21:37:25.011Z,101371.69
2023-01-31T21:39:53.326Z,101361.69
2023-01-31T21:42:21.521Z,101341.38
2023-01-31T21:44:49.215Z,101340.13
2023-01-31T21:47:17.073Z,101333.72
2023-01-31T21:49:44.672Z,101338.97
2023-01-31T21:52:12.158Z,101327.66
2023-01-31T21:54:42.660Z,101338.94
2023-01-31T21:57:10.403Z,101336.13
2023-01-31T21:59:39.188Z,101324.78
2023-01-31T22:02:06.852Z,101329.44
2023-01-31T22:04:34.485Z,101332.69
2023-01-31T22:07:02.025Z,101347.31
2023-01-31T22:09:29.583Z,101354.19
2023-01-31T22:12:00.130Z,101353.84
2023-01-31T22:14:27.829Z,101349.59
2023-01-31T22:16:55.493Z,101349.47
2023-01-31T22:19:23.126Z,101348.47
2023-01-31T22:21:50.943Z,101352.13
2023-01-31T22:24:18.626Z,101355.47
2023-01-31T22:26:46.192Z,101354.34
2023-01-31T22:29:15.863Z,101348.94
2023-01-31T22:31:44.810Z,101341.88
2023-01-31T22:34:16.055Z,101338.84
2023-01-31T22:36:43.861Z,101333.22
2023-01-31T22:39:13.307Z,101335.72
2023-01-31T22:41:40.888Z,101329.06
2023-01-31T22:44:08.409Z,101341.50
2023-01-31T22:46:36.160Z,101325.03
2023-01-31T22:49:05.984Z,101329.09
2023-01-31T22:51:33.615Z,101330.94
2023-01-31T22:54:01.051Z,101321.59
2023-01-31T22:56:31.097Z,101336.00
2023-01-31T22:59:04.201Z,101324.88
2023-01-31T23:01:35.115Z,101317.78
2023-01-31T23:04:05.364Z,101314.81
2023-01-31T23:06:37.799Z,101318.88
2023-01-31T23:09:07.679Z,101313.97
2023-01-31T23:11:35.377Z,101308.66
2023-01-31T23:14:03.524Z,101308.00
2023-01-31T23:16:49.843Z,101306.75
2023-01-31T23:19:17.462Z,101305.31
2023-01-31T23:21:45.640Z,101298.97
2023-01-31T23:24:19.072Z,101312.94
2023-01-31T23:26:46.736Z,101307.72
2023-01-31T23:29:14.299Z,101301.88
2023-01-31T23:31:41.967Z,101299.97
2023-01-31T23:34:09.592Z,101311.66
2023-01-31T23:36:37.330Z,101320.06
2023-01-31T23:39:05.286Z,101304.19
2023-01-31T23:41:32.833Z,101326.91
2023-01-31T23:44:00.352Z,101320.41
2023-01-31T23:46:27.830Z,101326.81
2023-01-31T23:48:55.261Z,101331.72
2023-01-31T23:51:22.719Z,101331.44
2023-01-31T23:53:50.196Z,101328.84
2023-01-31T23:56:17.653Z,101336.81
2023-01-31T23:58:45.234Z,101336.63
